createdAt,value
2018-08-11T00:00:49.347Z,0.00
2018-08-11T00:01:49.590Z,0.00
2018-08-11T00:02:49.834Z,0.00
2018-08-11T00:03:50.075Z,0.00
2018-08-11T00:04:50.310Z,0.00
2018-08-11T00:05:50.553Z,0.00
2018-08-11T00:06:50.793Z,0.00
2018-08-11T00:07:51.035Z,0.00
2018-08-11T00:08:51.275Z,0.00
2018-08-11T00:09:51.516Z,0.00
2018-08-11T00:10:51.755Z,0.00
2018-08-11T00:11:51.998Z,0.00
2018-08-11T00:12:52.235Z,0.00
2018-08-11T00:13:52.479Z,0.00
2018-08-11T00:14:52.718Z,0.00
2018-08-11T00:15:52.960Z,0.00
2018-08-11T00:16:53.199Z,0.00
2018-08-11T00:17:53.441Z,0.00
2018-08-11T00:18:53.682Z,0.00
2018-08-11T00:19:53.924Z,0.00
2018-08-11T00:20:54.165Z,0.00
2018-08-11T00:21:54.410Z,0.00
2018-08-11T00:22:54.647Z,0.00
2018-08-11T00:23:54.888Z,0.00
2018-08-11T00:24:55.130Z,0.00
2018-08-11T00:25:55.371Z,0.00
2018-08-11T00:26:55.610Z,0.00
2018-08-11T00:27:55.853Z,0.00
2018-08-11T00:28:56.093Z,0.00
2018-08-11T00:29:56.334Z,0.00
2018-08-11T00:30:56.582Z,0.00
2018-08-11T00:31:56.816Z,0.00
2018-08-11T00:32:57.057Z,0.00
2018-08-11T00:33:57.297Z,0.00
2018-08-11T00:34:57.542Z,0.00
2018-08-11T00:35:57.780Z,0.00
2018-08-11T00:36:58.022Z,0.00
2018-08-11T00:37:58.262Z,0.00
2018-08-11T00:38:58.502Z,0.00
2018-08-11T00:39:58.744Z,0.00
2018-08-11T00:40:58.986Z,0.00
2018-08-11T00:41:59.227Z,0.00
2018-08-11T00:42:59.467Z,0.00
2018-08-11T00:43:59.715Z,0.00
2018-08-11T00:44:59.951Z,0.00
2018-08-11T00:46:00.191Z,0.00
2018-08-11T00:47:00.431Z,0.00
2018-08-11T00:48:00.672Z,0.00
2018-08-11T00:49:00.913Z,0.00
2018-08-11T00:50:01.154Z,0.00
2018-08-11T00:51:01.397Z,0.00
2018-08-11T00:52:01.637Z,0.00
2018-08-11T00:53:01.877Z,0.00
2018-08-11T00:54:02.117Z,0.00
2018-08-11T00:55:02.359Z,0.00
2018-08-11T00:56:02.599Z,0.00
2018-08-11T00:57:02.842Z,0.00
2018-08-11T00:58:03.080Z,0.00
2018-08-11T00:59:03.321Z,0.00
2018-08-11T01:00:03.561Z,0.00
2018-08-11T01:01:03.804Z,0.00
2018-08-11T01:02:04.044Z,0.00
2018-08-11T01:03:04.286Z,0.00
2018-08-11T01:04:04.528Z,0.00
2018-08-11T01:05:04.771Z,0.00
2018-08-11T01:06:05.009Z,0.00
2018-08-11T01:07:05.257Z,0.00
2018-08-11T01:08:05.495Z,0.00
2018-08-11T01:09:05.734Z,0.00
2018-08-11T01:10:05.975Z,0.00
2018-08-11T01:11:06.217Z,0.00
2018-08-11T01:12:06.457Z,0.00
2018-08-11T01:13:06.699Z,0.00
2018-08-11T01:14:06.940Z,0.00
2018-08-11T01:15:07.181Z,0.00
2018-08-11T01:16:07.423Z,0.00
2018-08-11T01:17:07.665Z,0.00
2018-08-11T01:18:07.906Z,0.00
2018-08-11T01:19:08.147Z,0.00
2018-08-11T01:20:08.388Z,0.00
2018-08-11T01:21:08.631Z,0.00
2018-08-11T01:22:08.874Z,0.00
2018-08-11T01:23:09.115Z,0.00
2018-08-11T01:24:09.355Z,0.00
2018-08-11T01:25:09.595Z,0.00
2018-08-11T01:26:09.836Z,0.00
2018-08-11T01:27:10.077Z,0.00
2018-08-11T01:28:10.319Z,0.00
2018-08-11T01:29:10.560Z,0.00
2018-08-11T01:30:10.800Z,0.00
2018-08-11T01:31:11.041Z,0.00
2018-08-11T01:32:11.281Z,0.00
2018-08-11T01:33:11.525Z,0.00
2018-08-11T01:34:11.761Z,0.00
2018-08-11T01:35:12.004Z,0.00
2018-08-11T01:36:12.243Z,0.00
2018-08-11T01:37:12.485Z,0.00
2018-08-11T01:38:12.726Z,0.00
2018-08-11T01:39:12.965Z,0.00
2018-08-11T01:40:13.210Z,0.00
2018-08-11T01:41:13.447Z,0.00
2018-08-11T01:42:13.688Z,0.00
2018-08-11T01:43:13.929Z,0.00
2018-08-11T01:44:14.220Z,0.00
2018-08-11T01:45:14.411Z,0.00
2018-08-11T01:46:14.653Z,0.00
2018-08-11T01:47:14.892Z,0.00
2018-08-11T01:48:15.134Z,0.00
2018-08-11T01:49:15.373Z,0.00
2018-08-11T01:50:15.615Z,0.00
2018-08-11T01:51:15.857Z,0.00
2018-08-11T01:52:16.096Z,0.00
2018-08-11T01:53:16.336Z,0.00
2018-08-11T01:54:16.577Z,0.00
2018-08-11T01:55:16.818Z,0.00
2018-08-11T01:56:17.060Z,0.00
2018-08-11T01:57:17.302Z,0.00
2018-08-11T01:58:17.544Z,0.00
2018-08-11T01:59:17.782Z,0.00
2018-08-11T02:00:18.021Z,0.00
2018-08-11T02:01:18.260Z,0.00
2018-08-11T02:02:18.501Z,0.00
2018-08-11T02:03:18.742Z,0.00
2018-08-11T02:04:18.980Z,0.00
2018-08-11T02:05:19.223Z,0.00
2018-08-11T02:06:19.461Z,0.00
2018-08-11T02:07:19.700Z,0.00
2018-08-11T02:08:19.934Z,0.00
2018-08-11T02:09:20.174Z,0.00
2018-08-11T02:10:20.414Z,0.00
2018-08-11T02:11:20.777Z,0.00
2018-08-11T02:12:20.896Z,0.00
2018-08-11T02:13:21.136Z,0.00
2018-08-11T02:14:21.374Z,0.00
2018-08-11T02:15:21.616Z,0.00
2018-08-11T02:16:21.855Z,0.00
2018-08-11T02:17:22.096Z,0.00
2018-08-11T02:18:22.337Z,0.00
2018-08-11T02:19:22.576Z,0.00
2018-08-11T02:20:22.816Z,0.00
2018-08-11T02:21:23.060Z,0.00
2018-08-11T02:22:23.296Z,0.00
2018-08-11T02:23:23.537Z,0.00
2018-08-11T02:24:23.776Z,0.00
2018-08-11T02:25:24.018Z,0.00
2018-08-11T02:26:24.257Z,0.00
2018-08-11T02:27:24.498Z,0.00
2018-08-11T02:28:24.738Z,0.00
2018-08-11T02:29:24.978Z,0.00
2018-08-11T02:30:25.223Z,0.00
2018-08-11T02:31:25.459Z,0.00
2018-08-11T02:32:25.703Z,0.00
2018-08-11T02:33:25.943Z,0.00
2018-08-11T02:34:26.278Z,0.00
2018-08-11T02:35:26.422Z,0.00
2018-08-11T02:36:26.665Z,0.00
2018-08-11T02:37:26.900Z,0.00
2018-08-11T02:38:27.150Z,0.00
2018-08-11T02:39:27.379Z,0.00
2018-08-11T02:40:27.623Z,0.00
2018-08-11T02:41:27.864Z,0.00
2018-08-11T02:42:28.100Z,0.00
2018-08-11T02:43:28.339Z,0.00
2018-08-11T02:44:28.581Z,0.00
2018-08-11T02:45:28.820Z,0.00
2018-08-11T02:46:29.060Z,0.00
2018-08-11T02:47:29.299Z,0.00
2018-08-11T02:48:29.539Z,0.00
2018-08-11T02:49:29.780Z,0.00
2018-08-11T02:50:30.020Z,0.00
2018-08-11T02:51:30.258Z,0.00
2018-08-11T02:52:30.500Z,0.00
2018-08-11T02:53:30.739Z,0.00
2018-08-11T02:54:30.979Z,0.00
2018-08-11T02:55:31.215Z,0.00
2018-08-11T02:56:31.456Z,0.00
2018-08-11T02:57:31.700Z,0.00
2018-08-11T02:58:31.934Z,0.00
2018-08-11T02:59:32.174Z,0.00
2018-08-11T03:00:32.414Z,0.00
2018-08-11T03:01:32.654Z,0.00
2018-08-11T03:02:32.934Z,0.00
2018-08-11T03:03:33.133Z,0.00
2018-08-11T03:04:33.373Z,0.00
2018-08-11T03:05:33.620Z,0.00
2018-08-11T03:06:33.857Z,0.00
2018-08-11T03:07:34.094Z,0.00
2018-08-11T03:08:34.333Z,0.00
2018-08-11T03:09:34.574Z,0.00
2018-08-11T03:10:34.815Z,0.00
2018-08-11T03:11:35.057Z,0.00
2018-08-11T03:12:35.293Z,0.00
2018-08-11T03:13:35.535Z,0.00
2018-08-11T03:14:35.776Z,0.00
2018-08-11T03:15:36.021Z,0.00
2018-08-11T03:16:36.254Z,0.00
2018-08-11T03:17:36.494Z,0.00
2018-08-11T03:18:36.735Z,0.00
2018-08-11T03:19:36.974Z,0.00
2018-08-11T03:20:37.215Z,0.00
2018-08-11T03:21:37.454Z,0.00
2018-08-11T03:22:37.694Z,0.00
2018-08-11T03:23:37.933Z,0.00
2018-08-11T03:24:38.172Z,0.00
2018-08-11T03:25:38.412Z,0.00
2018-08-11T03:26:38.651Z,0.00
2018-08-11T03:27:38.893Z,0.00
2018-08-11T03:28:39.131Z,0.00
2018-08-11T03:29:39.370Z,0.00
2018-08-11T03:30:39.611Z,0.00
2018-08-11T03:31:39.851Z,4.00
2018-08-11T03:32:40.091Z,4.00
2018-08-11T03:33:40.330Z,4.00
2018-08-11T03:34:40.570Z,4.00
2018-08-11T03:35:40.811Z,4.00
2018-08-11T03:36:41.049Z,4.00
2018-08-11T03:37:41.291Z,4.00
2018-08-11T03:38:41.528Z,8.00
2018-08-11T03:39:41.767Z,4.00
2018-08-11T03:40:42.006Z,8.00
2018-08-11T03:41:42.246Z,12.00
2018-08-11T03:42:42.485Z,8.00
2018-08-11T03:43:42.726Z,12.00
2018-08-11T03:44:42.964Z,12.00
2018-08-11T03:45:43.211Z,16.00
2018-08-11T03:46:43.444Z,20.00
2018-08-11T03:47:43.686Z,20.00
2018-08-11T03:48:43.924Z,20.00
2018-08-11T03:49:44.163Z,24.00
2018-08-11T03:50:44.403Z,32.00
2018-08-11T03:51:44.649Z,32.00
2018-08-11T03:52:44.885Z,40.00
2018-08-11T03:53:45.125Z,44.00
2018-08-11T03:54:45.365Z,48.00
2018-08-11T03:55:45.606Z,56.00
2018-08-11T03:56:45.846Z,68.00
2018-08-11T03:57:46.087Z,76.00
2018-08-11T03:58:46.327Z,84.00
2018-08-11T03:59:46.567Z,88.00
2018-08-11T04:00:46.809Z,96.00
2018-08-11T04:01:47.048Z,104.00
2018-08-11T04:02:47.290Z,112.00
2018-08-11T04:03:47.529Z,124.00
2018-08-11T04:04:47.769Z,136.00
2018-08-11T04:05:48.009Z,144.00
2018-08-11T04:06:48.256Z,152.00
2018-08-11T04:07:48.492Z,164.00
2018-08-11T04:08:48.732Z,172.00
2018-08-11T04:09:48.975Z,184.00
2018-08-11T04:10:49.214Z,192.00
2018-08-11T04:11:49.455Z,204.00
2018-08-11T04:12:49.694Z,216.00
2018-08-11T04:13:49.932Z,232.00
2018-08-11T04:14:50.174Z,244.00
2018-08-11T04:15:50.412Z,256.00
2018-08-11T04:16:50.654Z,272.00
2018-08-11T04:17:50.894Z,288.00
2018-08-11T04:18:51.136Z,296.00
2018-08-11T04:19:51.376Z,316.00
2018-08-11T04:20:51.618Z,340.00
2018-08-11T04:21:51.857Z,368.00
2018-08-11T04:22:52.097Z,404.00
2018-08-11T04:23:52.337Z,444.00
2018-08-11T04:24:52.578Z,484.00
2018-08-11T04:25:52.819Z,528.00
2018-08-11T04:26:53.060Z,580.00
2018-08-11T04:27:53.300Z,628.00
2018-08-11T04:28:53.541Z,680.00
2018-08-11T04:29:53.781Z,724.00
2018-08-11T04:30:54.022Z,764.00
2018-08-11T04:31:54.262Z,796.00
2018-08-11T04:32:54.504Z,832.00
2018-08-11T04:33:54.744Z,868.00
2018-08-11T04:34:54.984Z,900.00
2018-08-11T04:35:55.225Z,932.00
2018-08-11T04:36:55.463Z,972.00
2018-08-11T04:37:55.704Z,1012.00
2018-08-11T04:38:55.946Z,1044.00
2018-08-11T04:39:56.186Z,1080.00
2018-08-11T04:40:56.426Z,1124.00
2018-08-11T04:41:56.683Z,1168.00
2018-08-11T04:42:56.909Z,1208.00
2018-08-11T04:43:57.149Z,1252.00
2018-08-11T04:44:57.389Z,1288.00
2018-08-11T04:45:57.631Z,1328.00
2018-08-11T04:46:57.871Z,1368.00
2018-08-11T04:47:58.114Z,1408.00
2018-08-11T04:48:58.352Z,1464.00
2018-08-11T04:49:58.597Z,1528.00
2018-08-11T04:50:58.836Z,1596.00
2018-08-11T04:51:59.079Z,1660.00
2018-08-11T04:52:59.319Z,1732.00
2018-08-11T04:53:59.560Z,1792.00
2018-08-11T04:54:59.800Z,1852.00
2018-08-11T04:56:00.040Z,1908.00
2018-08-11T04:57:00.283Z,1960.00
2018-08-11T04:58:00.521Z,2016.00
2018-08-11T04:59:00.767Z,2072.00
2018-08-11T05:00:01.005Z,2128.00
2018-08-11T05:01:01.247Z,2164.00
2018-08-11T05:02:01.489Z,2232.00
2018-08-11T05:03:01.729Z,2288.00
2018-08-11T05:04:01.970Z,2344.00
2018-08-11T05:05:02.213Z,2392.00
2018-08-11T05:06:02.455Z,2444.00
2018-08-11T05:07:02.694Z,2500.00
2018-08-11T05:08:02.934Z,2576.00
2018-08-11T05:09:03.174Z,2636.00
2018-08-11T05:10:03.415Z,2668.00
2018-08-11T05:11:03.658Z,2712.00
2018-08-11T05:12:03.901Z,2748.00
2018-08-11T05:13:04.140Z,2772.00
2018-08-11T05:14:04.381Z,2788.00
2018-08-11T05:15:04.623Z,2820.00
2018-08-11T05:16:04.862Z,2852.00
2018-08-11T05:17:05.103Z,2884.00
2018-08-11T05:18:05.344Z,2924.00
2018-08-11T05:19:05.589Z,2984.00
2018-08-11T05:20:05.830Z,3036.00
2018-08-11T05:21:06.069Z,3096.00
2018-08-11T05:22:06.310Z,3168.00
2018-08-11T05:23:06.554Z,3232.00
2018-08-11T05:24:06.792Z,3324.00
2018-08-11T05:25:07.034Z,3404.00
2018-08-11T05:26:07.277Z,3512.00
2018-08-11T05:27:07.517Z,3636.00
2018-08-11T05:28:07.758Z,3760.00
2018-08-11T05:29:07.999Z,3892.00
2018-08-11T05:30:08.243Z,4008.00
2018-08-11T05:31:08.480Z,4128.00
2018-08-11T05:32:08.721Z,4272.00
2018-08-11T05:33:08.974Z,4372.00
2018-08-11T05:34:09.204Z,4480.00
2018-08-11T05:35:09.448Z,4620.00
2018-08-11T05:36:09.688Z,4744.00
2018-08-11T05:37:09.930Z,4832.00
2018-08-11T05:38:10.171Z,4928.00
2018-08-11T05:39:10.414Z,5024.00
2018-08-11T05:40:10.656Z,5096.00
2018-08-11T05:41:10.898Z,5172.00
2018-08-11T05:42:11.143Z,5280.00
2018-08-11T05:43:11.381Z,5336.00
2018-08-11T05:44:11.622Z,5436.00
2018-08-11T05:45:11.864Z,5492.00
2018-08-11T05:46:12.105Z,5516.00
2018-08-11T05:47:12.347Z,5548.00
2018-08-11T05:48:12.590Z,5608.00
2018-08-11T05:49:12.833Z,5676.00
2018-08-11T05:50:13.074Z,5772.00
2018-08-11T05:51:13.315Z,5900.00
2018-08-11T05:52:13.558Z,5972.00
2018-08-11T05:53:13.801Z,6124.00
2018-08-11T05:54:14.041Z,6332.00
2018-08-11T05:55:14.309Z,6524.00
2018-08-11T05:56:14.529Z,6700.00
2018-08-11T05:57:14.775Z,6864.00
2018-08-11T05:58:15.010Z,7084.00
2018-08-11T05:59:15.250Z,7252.00
2018-08-11T06:00:15.492Z,7440.00
2018-08-11T06:01:15.733Z,7600.00
2018-08-11T06:02:15.976Z,7996.00
2018-08-11T06:03:16.217Z,7676.00
2018-08-11T06:04:16.459Z,7828.00
2018-08-11T06:05:16.703Z,7948.00
2018-08-11T06:06:16.945Z,7992.00
2018-08-11T06:07:17.187Z,8164.00
2018-08-11T06:08:17.429Z,8408.00
2018-08-11T06:09:17.670Z,9052.00
2018-08-11T06:10:17.912Z,8884.00
2018-08-11T06:11:18.155Z,9168.00
2018-08-11T06:12:18.395Z,9028.00
2018-08-11T06:13:18.638Z,8872.00
2018-08-11T06:14:18.887Z,8648.00
2018-08-11T06:15:19.129Z,7940.00
2018-08-11T06:16:19.376Z,7360.00
2018-08-11T06:17:19.623Z,7228.00
2018-08-11T06:18:19.857Z,7368.00
2018-08-11T06:19:20.098Z,7472.00
2018-08-11T06:20:20.341Z,7676.00
2018-08-11T06:21:20.584Z,7852.00
2018-08-11T06:22:20.827Z,8216.00
2018-08-11T06:23:21.069Z,8852.00
2018-08-11T06:24:21.314Z,9764.00
2018-08-11T06:25:21.553Z,10156.00
2018-08-11T06:26:21.796Z,9372.00
2018-08-11T06:27:22.039Z,8316.00
2018-08-11T06:28:22.283Z,7780.00
2018-08-11T06:29:22.529Z,7220.00
2018-08-11T06:30:22.768Z,7476.00
2018-08-11T06:31:23.056Z,7924.00
2018-08-11T06:32:23.264Z,8076.00
2018-08-11T06:33:23.498Z,8144.00
2018-08-11T06:34:23.741Z,9064.00
2018-08-11T06:35:23.985Z,9144.00
2018-08-11T06:36:24.227Z,8908.00
2018-08-11T06:37:24.469Z,9392.00
2018-08-11T06:38:24.712Z,10704.00
2018-08-11T06:39:24.959Z,10504.00
2018-08-11T06:40:25.212Z,11108.00
2018-08-11T06:41:25.443Z,10700.00
2018-08-11T06:42:25.675Z,11556.00
2018-08-11T06:43:25.916Z,11780.00
2018-08-11T06:44:26.166Z,11892.00
2018-08-11T06:45:26.401Z,13060.00
2018-08-11T06:46:26.645Z,14068.00
2018-08-11T06:47:26.892Z,13740.00
2018-08-11T06:48:27.137Z,12636.00
2018-08-11T06:49:27.380Z,11944.00
2018-08-11T06:50:27.624Z,10760.00
2018-08-11T06:51:27.868Z,10104.00
2018-08-11T06:52:28.108Z,10064.00
2018-08-11T06:53:28.353Z,10640.00
2018-08-11T06:54:28.595Z,12248.00
2018-08-11T06:55:28.892Z,13428.00
2018-08-11T06:56:29.082Z,13760.00
2018-08-11T06:57:29.324Z,14492.00
2018-08-11T06:58:29.567Z,15232.00
2018-08-11T06:59:29.808Z,16864.00
2018-08-11T07:00:30.050Z,16000.00
2018-08-11T07:01:30.297Z,16180.00
2018-08-11T07:02:30.563Z,19360.00
2018-08-11T07:03:30.807Z,17248.00
2018-08-11T07:04:31.053Z,18560.00
2018-08-11T07:05:31.294Z,14936.00
2018-08-11T07:06:31.544Z,12464.00
2018-08-11T07:07:31.972Z,10656.00
2018-08-11T07:08:31.992Z,9056.00
2018-08-11T07:09:32.233Z,8004.00
2018-08-11T07:10:32.478Z,7420.00
2018-08-11T07:11:32.721Z,7240.00
2018-08-11T07:12:32.966Z,7156.00
2018-08-11T07:13:33.211Z,7196.00
2018-08-11T07:14:33.454Z,7484.00
2018-08-11T07:15:33.699Z,8204.00
2018-08-11T07:16:33.942Z,8440.00
2018-08-11T07:17:34.190Z,8292.00
2018-08-11T07:18:34.432Z,7956.00
2018-08-11T07:19:34.673Z,7644.00
2018-08-11T07:20:34.918Z,7548.00
2018-08-11T07:21:35.161Z,7644.00
2018-08-11T07:22:35.404Z,7956.00
2018-08-11T07:23:35.651Z,8484.00
2018-08-11T07:24:35.893Z,9320.00
2018-08-11T07:25:36.133Z,10592.00
2018-08-11T07:26:36.435Z,11876.00
2018-08-11T07:27:36.616Z,12864.00
2018-08-11T07:28:36.859Z,13616.00
2018-08-11T07:29:37.102Z,14580.00
2018-08-11T07:30:37.344Z,15036.00
2018-08-11T07:31:37.588Z,14168.00
2018-08-11T07:32:37.830Z,14336.00
2018-08-11T07:33:38.076Z,17888.00
2018-08-11T07:34:38.317Z,19168.00
2018-08-11T07:35:38.560Z,20192.00
2018-08-11T07:36:38.854Z,19168.00
2018-08-11T07:37:39.048Z,16536.00
2018-08-11T07:38:39.293Z,13864.00
2018-08-11T07:39:39.536Z,15644.00
2018-08-11T07:40:39.780Z,12352.00
2018-08-11T07:41:40.025Z,16480.00
2018-08-11T07:42:40.271Z,16540.00
2018-08-11T07:43:40.514Z,16380.00
2018-08-11T07:44:40.764Z,16024.00
2018-08-11T07:45:41.005Z,16612.00
2018-08-11T07:46:41.252Z,16892.00
2018-08-11T07:47:41.569Z,17440.00
2018-08-11T07:48:41.746Z,17568.00
2018-08-11T07:49:42.000Z,18048.00
2018-08-11T07:50:42.243Z,19360.00
2018-08-11T07:51:42.488Z,22080.00
2018-08-11T07:52:42.733Z,23136.00
2018-08-11T07:53:42.979Z,19168.00
2018-08-11T07:54:43.225Z,18368.00
2018-08-11T07:55:43.474Z,18880.00
2018-08-11T07:56:43.722Z,19552.00
2018-08-11T07:57:43.967Z,19776.00
2018-08-11T07:58:44.213Z,22752.00
2018-08-11T07:59:44.460Z,24384.00
2018-08-11T08:00:44.707Z,20320.00
2018-08-11T08:01:44.955Z,22464.00
2018-08-11T08:02:45.201Z,26624.00
2018-08-11T08:03:45.449Z,28960.00
2018-08-11T08:04:45.697Z,28960.00
2018-08-11T08:05:45.944Z,27520.00
2018-08-11T08:06:46.192Z,23936.00
2018-08-11T08:07:46.441Z,19776.00
2018-08-11T08:08:46.685Z,18688.00
2018-08-11T08:09:46.932Z,18848.00
2018-08-11T08:10:47.179Z,19232.00
2018-08-11T08:11:47.426Z,19648.00
2018-08-11T08:12:47.673Z,20064.00
2018-08-11T08:13:47.996Z,20512.00
2018-08-11T08:14:48.168Z,22304.00
2018-08-11T08:15:48.416Z,26560.00
2018-08-11T08:16:48.664Z,29248.00
2018-08-11T08:17:48.913Z,34112.00
2018-08-11T08:18:49.159Z,35840.00
2018-08-11T08:19:49.405Z,21472.00
2018-08-11T08:20:49.651Z,14308.00
2018-08-11T08:21:49.902Z,19872.00
2018-08-11T08:22:50.151Z,25344.00
2018-08-11T08:23:50.402Z,23680.00
2018-08-11T08:24:50.647Z,17316.00
2018-08-11T08:25:50.895Z,28512.00
2018-08-11T08:26:51.153Z,38144.00
2018-08-11T08:27:51.392Z,39712.00
2018-08-11T08:28:51.640Z,38112.00
2018-08-11T08:29:52.026Z,38848.00
2018-08-11T08:30:52.136Z,38912.00
2018-08-11T08:31:52.381Z,45824.00
2018-08-11T08:32:52.635Z,47616.00
2018-08-11T08:33:52.897Z,49376.00
2018-08-11T08:34:53.131Z,35328.00
2018-08-11T08:35:53.380Z,49920.00
2018-08-11T08:36:53.628Z,18304.00
2018-08-11T08:37:53.876Z,36288.00
2018-08-11T08:38:54.126Z,16124.00
2018-08-11T08:39:54.374Z,19360.00
2018-08-11T08:40:54.624Z,15220.00
2018-08-11T08:41:54.969Z,12544.00
2018-08-11T08:42:55.125Z,14484.00
2018-08-11T08:43:55.371Z,16460.00
2018-08-11T08:44:55.618Z,17472.00
2018-08-11T08:45:55.867Z,19200.00
2018-08-11T08:46:56.115Z,29376.00
2018-08-11T08:47:56.361Z,56288.00
2018-08-11T08:48:56.610Z,20992.00
2018-08-11T08:49:56.858Z,60256.00
2018-08-11T08:50:57.105Z,44352.00
2018-08-11T08:51:57.352Z,26560.00
2018-08-11T08:52:57.603Z,30912.00
2018-08-11T08:53:57.848Z,20384.00
2018-08-11T08:54:58.096Z,18432.00
2018-08-11T08:55:58.343Z,15460.00
2018-08-11T08:56:58.591Z,16188.00
2018-08-11T08:57:58.837Z,19232.00
2018-08-11T08:58:59.102Z,24800.00
2018-08-11T08:59:59.332Z,65472.00
2018-08-11T09:00:59.577Z,66816.00
2018-08-11T09:01:59.824Z,64992.00
2018-08-11T09:03:00.075Z,16976.00
2018-08-11T09:04:00.326Z,16968.00
2018-08-11T09:05:00.572Z,22240.00
2018-08-11T09:06:00.822Z,65088.00
2018-08-11T09:07:01.068Z,63840.00
2018-08-11T09:08:01.317Z,44608.00
2018-08-11T09:09:01.565Z,28928.00
2018-08-11T09:10:01.818Z,20640.00
2018-08-11T09:11:02.065Z,64480.00
2018-08-11T09:12:02.402Z,67040.00
2018-08-11T09:13:02.562Z,70592.00
2018-08-11T09:14:02.813Z,71072.00
2018-08-11T09:15:03.064Z,70592.00
2018-08-11T09:16:03.309Z,73248.00
2018-08-11T09:17:03.559Z,72320.00
2018-08-11T09:18:03.809Z,20640.00
2018-08-11T09:19:04.058Z,23040.00
2018-08-11T09:20:04.311Z,68544.00
2018-08-11T09:21:04.563Z,34816.00
2018-08-11T09:22:04.814Z,25120.00
2018-08-11T09:23:05.062Z,53728.00
2018-08-11T09:24:05.345Z,15500.00
2018-08-11T09:25:05.595Z,14344.00
2018-08-11T09:26:05.841Z,14776.00
2018-08-11T09:27:06.091Z,15332.00
2018-08-11T09:28:06.338Z,32192.00
2018-08-11T09:29:06.602Z,16356.00
2018-08-11T09:30:06.838Z,68128.00
2018-08-11T09:31:07.082Z,46080.00
2018-08-11T09:32:07.332Z,79264.00
2018-08-11T09:33:07.581Z,79296.00
2018-08-11T09:34:07.829Z,82304.00
2018-08-11T09:35:08.078Z,33280.00
2018-08-11T09:36:08.324Z,48480.00
2018-08-11T09:37:08.573Z,22848.00
2018-08-11T09:38:08.822Z,20384.00
2018-08-11T09:39:09.104Z,82240.00
2018-08-11T09:40:09.356Z,82848.00
2018-08-11T09:41:09.607Z,83232.00
2018-08-11T09:42:09.919Z,65760.00
2018-08-11T09:43:10.181Z,82720.00
2018-08-11T09:44:10.537Z,77408.00
2018-08-11T09:45:10.934Z,89216.00
2018-08-11T09:46:11.186Z,93696.00
2018-08-11T09:47:11.450Z,71520.00
2018-08-11T09:48:11.753Z,23744.00
2018-08-11T09:49:12.001Z,23168.00
2018-08-11T09:50:12.251Z,23776.00
2018-08-11T09:51:12.500Z,28576.00
2018-08-11T09:52:13.138Z,30016.00
2018-08-11T09:53:13.416Z,28960.00
2018-08-11T09:54:13.462Z,25120.00
2018-08-11T09:55:13.711Z,99200.00
2018-08-11T09:56:14.045Z,53184.00
2018-08-11T09:57:14.300Z,88000.00
2018-08-11T09:58:14.639Z,37216.00
2018-08-11T09:59:14.890Z,89824.00
2018-08-11T10:00:15.141Z,89952.00
2018-08-11T10:01:15.386Z,58496.00
2018-08-11T10:02:15.736Z,19552.00
2018-08-11T10:03:15.994Z,94688.00
2018-08-11T10:04:16.247Z,90944.00
2018-08-11T10:05:16.500Z,88992.00
2018-08-11T10:06:16.770Z,89568.00
2018-08-11T10:07:17.037Z,92384.00
2018-08-11T10:08:17.286Z,75840.00
2018-08-11T10:09:17.666Z,89632.00
2018-08-11T10:10:17.983Z,87808.00
2018-08-11T10:11:18.237Z,91936.00
2018-08-11T10:12:18.484Z,93472.00
2018-08-11T10:13:18.739Z,92160.00
2018-08-11T10:14:18.985Z,90944.00
2018-08-11T10:15:19.237Z,88192.00
2018-08-11T10:16:19.488Z,87936.00
2018-08-11T10:17:19.812Z,89216.00
2018-08-11T10:18:20.068Z,84896.00
2018-08-11T10:19:20.324Z,57184.00
2018-08-11T10:20:20.600Z,95040.00
2018-08-11T10:21:20.857Z,28288.00
2018-08-11T10:22:21.113Z,85184.00
2018-08-11T10:23:21.418Z,28192.00
2018-08-11T10:24:21.782Z,93184.00
2018-08-11T10:25:22.070Z,85376.00
2018-08-11T10:26:22.349Z,85920.00
2018-08-11T10:27:22.664Z,90880.00
2018-08-11T10:28:22.977Z,91328.00
2018-08-11T10:29:23.229Z,89216.00
2018-08-11T10:30:23.480Z,89376.00
2018-08-11T10:31:23.735Z,92352.00
2018-08-11T10:32:23.995Z,92576.00
2018-08-11T10:33:24.434Z,89248.00
2018-08-11T10:34:24.619Z,88960.00
2018-08-11T10:35:24.872Z,89312.00
2018-08-11T10:36:25.128Z,88736.00
2018-08-11T10:37:25.380Z,92384.00
2018-08-11T10:38:25.633Z,27136.00
2018-08-11T10:39:25.886Z,28256.00
2018-08-11T10:40:26.695Z,86208.00
2018-08-11T10:41:27.519Z,35264.00
2018-08-11T10:42:26.788Z,30400.00
2018-08-11T10:43:27.040Z,25760.00
2018-08-11T10:44:27.290Z,100160.00
2018-08-11T10:45:27.542Z,63840.00
2018-08-11T10:46:27.795Z,32512.00
2018-08-11T10:47:28.047Z,65312.00
2018-08-11T10:48:28.302Z,49088.00
2018-08-11T10:49:28.555Z,43968.00
2018-08-11T10:50:28.808Z,76736.00
2018-08-11T10:51:29.060Z,91808.00
2018-08-11T10:52:29.314Z,92192.00
2018-08-11T10:53:29.571Z,94720.00
2018-08-11T10:54:29.823Z,92640.00
2018-08-11T10:55:30.077Z,89376.00
2018-08-11T10:56:30.328Z,90912.00
2018-08-11T10:57:30.580Z,91680.00
2018-08-11T10:58:30.833Z,87328.00
2018-08-11T10:59:31.174Z,90112.00
2018-08-11T11:00:31.454Z,95648.00
2018-08-11T11:01:31.705Z,96160.00
2018-08-11T11:02:31.956Z,23392.00
2018-08-11T11:03:32.209Z,22304.00
2018-08-11T11:04:32.463Z,96384.00
2018-08-11T11:05:33.328Z,97952.00
2018-08-11T11:06:33.019Z,21344.00
2018-08-11T11:07:33.347Z,20416.00
2018-08-11T11:08:44.520Z,20992.00
2018-08-11T11:09:33.945Z,23360.00
2018-08-11T11:10:34.198Z,106976.00
2018-08-11T11:11:34.449Z,104896.00
2018-08-11T11:12:34.700Z,108128.00
2018-08-11T11:13:34.953Z,21952.00
2018-08-11T11:14:35.210Z,23232.00
2018-08-11T11:15:35.458Z,95264.00
2018-08-11T11:16:35.711Z,24000.00
2018-08-11T11:17:35.966Z,25920.00
2018-08-11T11:18:36.216Z,26592.00
2018-08-11T11:19:36.465Z,108416.00
2018-08-11T11:20:36.718Z,28096.00
2018-08-11T11:21:36.969Z,22688.00
2018-08-11T11:22:37.223Z,22016.00
2018-08-11T11:23:37.472Z,22496.00
2018-08-11T11:24:37.726Z,107232.00
2018-08-11T11:25:37.975Z,30976.00
2018-08-11T11:26:38.226Z,20064.00
2018-08-11T11:27:38.477Z,19040.00
2018-08-11T11:28:38.728Z,82016.00
2018-08-11T11:29:38.979Z,103456.00
2018-08-11T11:30:39.232Z,99360.00
2018-08-11T11:31:39.484Z,103360.00
2018-08-11T11:32:39.731Z,108768.00
2018-08-11T11:33:39.981Z,93024.00
2018-08-11T11:34:40.234Z,38848.00
2018-08-11T11:35:40.486Z,107520.00
2018-08-11T11:36:40.738Z,98432.00
2018-08-11T11:37:40.990Z,109824.00
2018-08-11T11:38:41.244Z,106944.00
2018-08-11T11:39:41.493Z,105024.00
2018-08-11T11:40:41.745Z,104064.00
2018-08-11T11:41:41.995Z,107552.00
2018-08-11T11:42:42.256Z,111584.00
2018-08-11T11:43:42.504Z,108544.00
2018-08-11T11:44:42.752Z,105664.00
2018-08-11T11:45:43.005Z,110560.00
2018-08-11T11:46:43.257Z,114560.00
2018-08-11T11:47:43.510Z,110752.00
2018-08-11T11:48:43.763Z,105792.00
2018-08-11T11:49:44.018Z,108384.00
2018-08-11T11:50:44.271Z,112480.00
2018-08-11T11:51:44.524Z,19648.00
2018-08-11T11:52:44.782Z,60128.00
2018-08-11T11:53:45.038Z,119072.00
2018-08-11T11:54:45.287Z,126016.00
2018-08-11T11:55:45.541Z,121824.00
2018-08-11T11:56:45.792Z,109408.00
2018-08-11T11:57:46.047Z,106400.00
2018-08-11T11:58:46.300Z,112000.00
2018-08-11T11:59:46.577Z,112288.00
2018-08-11T12:00:46.806Z,111904.00
2018-08-11T12:01:47.061Z,114848.00
2018-08-11T12:02:47.316Z,115424.00
2018-08-11T12:03:47.569Z,109504.00
2018-08-11T12:04:47.830Z,103424.00
2018-08-11T12:05:48.140Z,102240.00
2018-08-11T12:06:48.341Z,102208.00
2018-08-11T12:07:48.590Z,106272.00
2018-08-11T12:08:48.844Z,19840.00
2018-08-11T12:09:49.098Z,20128.00
2018-08-11T12:10:49.355Z,18688.00
2018-08-11T12:11:49.606Z,18560.00
2018-08-11T12:12:49.864Z,18656.00
2018-08-11T12:13:50.120Z,20160.00
2018-08-11T12:14:50.368Z,21088.00
2018-08-11T12:15:50.620Z,113792.00
2018-08-11T12:16:50.873Z,119168.00
2018-08-11T12:17:51.128Z,112800.00
2018-08-11T12:18:51.379Z,68768.00
2018-08-11T12:19:51.635Z,30368.00